Time;durP1;ratioP1;P1;durP2;ratioP2;P2;SDS_P1;SDS_P2;PMS_P1;PMS_P2;Temp;Humidity;BMP_temperature;BMP_pressure;BME280_temperature;BME280_humidity;BME280_pressure;Samples;Min_cycle;Max_cycle;Signal;HPM_P1;HPM_P2
2023/03/07 00:00:00;;;;;;;0.60;0.60;;;;;;;1.13;73.51;95720.09;29373;224;63009;-68
2023/03/07 00:00:31;;;;;;;0.60;0.60;;;;;;;1.14;73.55;95723.56;29371;213;64009;-53
2023/03/07 00:01:04;;;;;;;0.60;0.60;;;;;;;1.13;73.33;95717.41;29373;212;63009;-54
2023/03/07 00:01:36;;;;;;;0.70;0.70;;;;;;;1.14;73.53;95719.03;29373;206;63009;-54
2023/03/07 00:02:07;;;;;;;0.60;0.60;;;;;;;1.14;73.52;95710.19;29373;209;63008;-69
2023/03/07 00:02:38;;;;;;;0.60;0.60;;;;;;;1.13;73.33;95712.06;29373;215;63004;-67
2023/03/07 00:03:16;;;;;;;0.60;0.60;;;;;;;1.11;73.42;95714.19;29373;275;63008;-68
2023/03/07 00:03:52;;;;;;;0.50;0.50;;;;;;;1.10;73.47;95720.59;29373;198;63005;-70
2023/03/07 00:04:23;;;;;;;0.60;0.60;;;;;;;1.13;73.63;95719.28;29372;319;63009;-69
2023/03/07 00:04:54;;;;;;;0.60;0.60;;;;;;;1.12;73.89;95715.81;29373;252;63005;-67
2023/03/07 00:05:26;;;;;;;0.60;0.60;;;;;;;1.11;73.60;95719.53;29371;212;64013;-68
2023/03/07 00:06:07;;;;;;;0.60;0.60;;;;;;;1.17;73.46;95718.50;29373;288;63005;-70
2023/03/07 00:06:38;;;;;;;0.60;0.60;;;;;;;1.18;73.13;95716.63;29395;214;63009;-70
2023/03/07 00:07:09;;;;;;;0.60;0.60;;;;;;;1.18;73.19;95713.97;29395;253;63004;-70
2023/03/07 00:07:41;;;;;;;0.60;0.60;;;;;;;1.16;73.09;95711.56;29371;290;64013;-68
2023/03/07 00:08:12;;;;;;;0.60;0.60;;;;;;;1.16;73.13;95719.56;29373;212;63004;-54
2023/03/07 00:08:44;;;;;;;0.60;0.60;;;;;;;1.14;73.24;95719.03;29373;241;63009;-55
2023/03/07 00:09:16;;;;;;;0.60;0.60;;;;;;;1.13;73.49;95722.75;29373;256;63004;-70
2023/03/07 00:09:47;;;;;;;0.60;0.60;;;;;;;1.12;73.31;95715.00;29371;218;64013;-70
2023/03/07 00:10:22;;;;;;;0.60;0.60;;;;;;;1.13;73.36;95717.41;29373;198;63005;-68
2023/03/07 00:10:53;;;;;;;0.60;0.60;;;;;;;1.13;73.50;95714.75;29373;222;63009;-71
2023/03/07 00:11:25;;;;;;;0.60;0.60;;;;;;;1.17;73.60;95717.69;29373;273;63005;-54
2023/03/07 00:11:56;;;;;;;0.60;0.60;;;;;;;1.11;73.43;95703.50;29373;197;63009;-68
2023/03/07 00:12:27;;;;;;;0.60;0.60;;;;;;;1.20;73.34;95715.31;29373;221;63005;-68
2023/03/07 00:12:59;;;;;;;0.60;0.60;;;;;;;1.20;73.03;95715.31;29373;220;63009;-54
2023/03/07 00:13:32;;;;;;;0.60;0.60;;;;;;;1.20;73.04;95714.50;29373;222;63005;-71
2023/03/07 00:14:07;;;;;;;0.60;0.60;;;;;;;1.19;73.17;95716.38;29371;323;64013;-68
2023/03/07 00:14:38;;;;;;;0.60;0.60;;;;;;;1.19;73.13;95716.38;29371;263;64009;-55
2023/03/07 00:15:12;;;;;;;0.60;0.60;;;;;;;1.20;73.22;95707.28;29373;301;63009;-69
2023/03/07 00:15:44;;;;;;;0.60;0.60;;;;;;;1.20;73.08;95711.84;29373;212;63004;-71
2023/03/07 00:16:20;;;;;;;0.60;0.60;;;;;;;1.17;73.20;95718.50;29373;274;63009;-71
2023/03/07 00:16:52;;;;;;;0.57;0.57;;;;;;;1.16;73.11;95714.22;29373;226;63004;-55
2023/03/07 00:17:24;;;;;;;0.60;0.60;;;;;;;1.14;73.25;95719.03;29373;215;63008;-54
2023/03/07 00:17:56;;;;;;;0.60;0.60;;;;;;;1.13;73.32;95720.09;29373;229;63005;-70
2023/03/07 00:18:28;;;;;;;0.60;0.60;;;;;;;1.12;73.57;95723.81;29373;216;63009;-73
2023/03/07 00:19:00;;;;;;;0.60;0.60;;;;;;;1.16;73.28;95716.91;29373;310;63005;-69
2023/03/07 00:19:31;;;;;;;0.60;0.60;;;;;;;1.16;73.25;95721.44;29373;207;63009;-72
2023/03/07 00:20:08;;;;;;;0.60;0.60;;;;;;;1.16;73.10;95716.91;29371;354;64009;-68
2023/03/07 00:20:41;;;;;;;0.60;0.60;;;;;;;1.16;73.42;95716.91;29373;221;63009;-72
2023/03/07 00:21:16;;;;;;;0.60;0.60;;;;;;;1.17;73.11;95718.50;29371;245;64009;-54
2023/03/07 00:21:47;;;;;;;0.60;0.60;;;;;;;1.15;73.44;95720.62;29373;276;63013;-55
2023/03/07 00:22:18;;;;;;;0.60;0.60;;;;;;;1.14;73.36;95713.69;29373;322;63007;-69
2023/03/07 00:22:49;;;;;;;0.60;0.60;;;;;;;1.15;73.25;95717.16;29373;221;63009;-56
2023/03/07 00:23:21;;;;;;;0.60;0.60;;;;;;;1.19;73.13;95721.72;29373;313;63004;-55
2023/03/07 00:23:52;;;;;;;0.60;0.60;;;;;;;1.19;73.23;95711.03;29373;197;63009;-70
2023/03/07 00:24:25;;;;;;;0.60;0.60;;;;;;;1.21;72.90;95718.78;29373;203;63004;-72
2023/03/07 00:24:56;;;;;;;0.60;0.60;;;;;;;1.21;72.99;95722.25;29373;288;63008;-54
2023/03/07 00:25:28;;;;;;;0.60;0.60;;;;;;;1.22;72.93;95709.72;29373;197;63005;-67
2023/03/07 00:26:15;;;;;;;0.60;0.60;;;;;;;1.23;72.93;95712.13;29373;229;63009;-68
2023/03/07 00:26:48;;;;;;;0.60;0.60;;;;;;;1.25;72.83;95710.00;29371;202;64009;-55
2023/03/07 00:27:19;;;;;;;0.60;0.60;;;;;;;1.25;72.53;95720.69;29373;282;63009;-54
2023/03/07 00:27:50;;;;;;;0.60;0.60;;;;;;;1.24;72.83;95707.56;29373;216;63005;-70
2023/03/07 00:28:22;;;;;;;0.57;0.57;;;;;;;1.29;72.62;95710.25;29373;358;63009;-71
2023/03/07 00:28:54;;;;;;;0.60;0.60;;;;;;;1.30;72.41;95711.88;29373;288;63005;-57
2023/03/07 00:29:26;;;;;;;0.50;0.50;;;;;;;1.27;72.45;95707.84;29373;226;63023;-71
2023/03/07 00:29:57;;;;;;;0.60;0.60;;;;;;;1.25;72.55;95710.00;29373;205;63004;-55
2023/03/07 00:30:29;;;;;;;0.50;0.50;;;;;;;1.26;72.44;95706.25;29373;197;63009;-55
2023/03/07 00:31:03;;;;;;;0.60;0.60;;;;;;;1.27;72.77;95709.72;29373;268;63008;-70
2023/03/07 00:31:36;;;;;;;0.60;0.60;;;;;;;1.26;72.91;95708.13;29373;282;63009;-68
2023/03/07 00:32:07;;;;;;;0.60;0.60;;;;;;;1.25;72.72;95709.19;29371;210;64008;-55
2023/03/07 00:32:38;;;;;;;0.60;0.60;;;;;;;1.22;72.88;95713.19;29373;298;63008;-55
2023/03/07 00:33:10;;;;;;;0.60;0.60;;;;;;;1.21;72.98;95716.13;29371;296;64009;-54
2023/03/07 00:33:44;;;;;;;0.60;0.60;;;;;;;1.24;73.20;95711.06;29373;274;63009;-54
2023/03/07 00:34:16;;;;;;;0.60;0.60;;;;;;;1.26;72.83;95710.78;29373;216;63011;-55
2023/03/07 00:34:47;;;;;;;0.60;0.60;;;;;;;1.28;72.75;95706.78;29373;260;63009;-67
2023/03/07 00:35:18;;;;;;;0.50;0.50;;;;;;;1.29;72.85;95711.06;29373;257;63005;-70
2023/03/07 00:36:00;;;;;;;0.60;0.60;;;;;;;1.28;73.00;95709.47;29373;286;63017;-70
2023/03/07 00:36:32;;;;;;;0.60;0.60;;;;;;;1.29;72.34;95705.72;29394;303;63005;-54
2023/03/07 00:37:03;;;;;;;0.60;0.60;;;;;;;1.27;72.83;95707.06;29395;318;63009;-71
2023/03/07 00:37:34;;;;;;;0.60;0.60;;;;;;;1.24;72.74;95707.56;29371;272;64009;-69
2023/03/07 00:38:06;;;;;;;0.60;0.60;;;;;;;1.22;73.07;95704.34;29373;274;63009;-54
2023/03/07 00:38:37;;;;;;;0.60;0.60;;;;;;;1.18;73.18;95713.97;29373;279;63004;-54
2023/03/07 00:39:09;;;;;;;0.88;0.88;;;;;;;1.17;73.26;95709.69;29373;196;63009;-55
2023/03/07 00:39:41;;;;;;;0.60;0.60;;;;;;;1.17;73.08;95709.69;29373;260;63004;-69
2023/03/07 00:40:14;;;;;;;0.60;0.60;;;;;;;1.16;73.26;95711.56;29371;345;64013;-70
2023/03/07 00:40:46;;;;;;;0.60;0.60;;;;;;;1.16;72.96;95711.56;29373;241;63005;-72
2023/03/07 00:41:23;;;;;;;0.60;0.60;;;;;;;1.17;73.11;95713.16;29373;332;63009;-71
2023/03/07 00:41:54;;;;;;;0.60;0.60;;;;;;;1.16;73.04;95708.88;29373;313;63015;-55
2023/03/07 00:42:25;;;;;;;0.60;0.60;;;;;;;1.17;72.98;95707.81;29372;365;64009;-54
2023/03/07 00:42:58;;;;;;;0.60;0.60;;;;;;;1.22;73.00;95709.72;29371;296;64009;-70
2023/03/07 00:43:30;;;;;;;0.60;0.60;;;;;;;1.24;73.07;95703.03;29373;202;63009;-68
2023/03/07 00:44:01;;;;;;;0.60;0.60;;;;;;;1.28;72.64;95704.13;29373;243;63007;-69
2023/03/07 00:44:33;;;;;;;0.60;0.60;;;;;;;1.29;72.37;95700.38;29373;270;63009;-69
2023/03/07 00:45:06;;;;;;;0.60;0.60;;;;;;;1.29;72.18;95699.56;29373;321;63004;-56
2023/03/07 00:45:37;;;;;;;0.60;0.60;;;;;;;1.28;72.22;95701.44;29373;198;63009;-54
2023/03/07 00:46:09;;;;;;;0.60;0.60;;;;;;;1.24;72.38;95696.88;29371;202;64009;-55
2023/03/07 00:46:40;;;;;;;0.60;0.60;;;;;;;1.22;72.57;95699.81;29373;332;63009;-55
2023/03/07 00:47:12;;;;;;;0.60;0.60;;;;;;;1.20;72.52;95699.28;29373;210;63004;-55
2023/03/07 00:47:43;;;;;;;0.60;0.60;;;;;;;1.20;72.70;95695.81;29373;206;63008;-55
2023/03/07 00:48:17;;;;;;;0.60;0.60;;;;;;;1.20;72.63;95691.25;29373;365;63005;-54
2023/03/07 00:48:49;;;;;;;0.60;0.60;;;;;;;1.22;72.48;95699.81;29373;204;63009;-65
2023/03/07 00:49:20;;;;;;;0.90;0.90;;;;;;;1.29;72.03;95691.56;29371;215;64009;-67
2023/03/07 00:49:51;;;;;;;0.60;0.60;;;;;;;1.31;71.88;95692.91;29373;208;63013;-70
2023/03/07 00:50:23;;;;;;;0.60;0.60;;;;;;;1.30;71.84;95691.31;29373;272;63005;-55
2023/03/07 00:50:55;;;;;;;0.60;0.60;;;;;;;1.29;72.07;95683.53;29373;265;63009;-66
2023/03/07 00:51:26;;;;;;;0.60;0.60;;;;;;;1.30;71.90;95683.28;29373;335;63005;-55
2023/03/07 00:51:59;;;;;;;0.60;0.60;;;;;;;1.30;71.89;95685.94;29371;249;64013;-68
2023/03/07 00:52:30;;;;;;;0.60;0.60;;;;;;;1.30;71.71;95679.81;29373;223;63004;-69
2023/03/07 00:53:01;;;;;;;0.60;0.60;;;;;;;1.28;71.92;95682.75;29373;254;63009;-68
2023/03/07 00:53:35;;;;;;;0.60;0.60;;;;;;;1.29;71.63;95679.00;29373;258;63008;-72
2023/03/07 00:54:06;;;;;;;0.60;0.60;;;;;;;1.29;71.87;95678.19;29373;327;63009;-55
2023/03/07 00:54:38;;;;;;;0.60;0.60;;;;;;;1.28;71.55;95671.25;29373;233;63004;-70
2023/03/07 00:55:10;;;;;;;0.60;0.60;;;;;;;1.30;71.35;95680.59;29373;345;63008;-65
2023/03/07 00:55:41;;;;;;;0.60;0.60;;;;;;;1.38;71.57;95675.81;29373;214;63005;-68
2023/03/07 00:56:19;;;;;;;0.60;0.60;;;;;;;1.44;71.24;95674.75;29373;299;63009;-55
2023/03/07 00:56:50;;;;;;;0.60;0.60;;;;;;;1.48;70.91;95673.16;29371;209;64009;-68
2023/03/07 00:57:22;;;;;;;0.60;0.60;;;;;;;1.45;70.95;95671.00;29373;306;63009;-69
2023/03/07 00:57:53;;;;;;;0.60;0.60;;;;;;;1.47;70.83;95668.88;29371;210;64009;-69
2023/03/07 00:58:30;;;;;;;0.60;0.60;;;;;;;1.44;70.86;95670.19;29373;356;63009;-55
2023/03/07 00:59:01;;;;;;;0.60;0.60;;;;;;;1.38;70.80;95670.47;29373;315;63005;-65
2023/03/07 00:59:33;;;;;;;0.60;0.60;;;;;;;1.37;70.83;95674.22;29373;197;63009;-71
2023/03/07 01:00:06;;;;;;;0.60;0.60;;;;;;;1.33;70.73;95664.06;29371;286;64009;-54
2023/03/07 01:00:37;;;;;;;0.60;0.60;;;;;;;1.33;71.18;95673.94;29373;224;63024;-68
2023/03/07 01:01:11;;;;;;;0.60;0.60;;;;;;;1.36;70.83;95662.72;29373;205;63008;-56
2023/03/07 01:01:44;;;;;;;0.70;0.70;;;;;;;1.45;70.25;95671.00;29371;362;64013;-55
2023/03/07 01:02:15;;;;;;;0.60;0.60;;;;;;;1.45;70.42;95668.31;29373;246;63014;-54
2023/03/07 01:02:46;;;;;;;0.57;0.57;;;;;;;1.42;70.51;95672.34;29373;305;63015;-56
2023/03/07 01:03:18;;;;;;;0.60;0.60;;;;;;;1.43;70.39;95673.13;29373;202;63005;-54
2023/03/07 01:03:54;;;;;;;0.60;0.60;;;;;;;1.40;70.71;95674.47;29373;205;63009;-54
2023/03/07 01:04:26;;;;;;;0.60;0.60;;;;;;;1.39;70.18;95672.09;29373;253;63005;-55
2023/03/07 01:04:57;;;;;;;0.60;0.60;;;;;;;1.36;70.29;95667.25;29371;271;64013;-55
2023/03/07 01:05:28;;;;;;;0.60;0.60;;;;;;;1.38;70.37;95670.47;29373;363;63005;-55
2023/03/07 01:06:05;;;;;;;0.60;0.60;;;;;;;1.37;70.78;95668.88;29373;198;63009;-55
2023/03/07 01:06:38;;;;;;;0.60;0.60;;;;;;;1.33;70.50;95668.59;29371;296;64009;-54
2023/03/07 01:07:09;;;;;;;0.60;0.60;;;;;;;1.30;70.92;95666.44;29373;203;63009;-69
2023/03/07 01:07:41;;;;;;;0.60;0.60;;;;;;;1.28;71.00;95665.91;29371;310;64009;-54
2023/03/07 01:08:13;;;;;;;0.60;0.60;;;;;;;1.27;71.14;95673.13;29373;337;63012;-71
2023/03/07 01:08:45;;;;;;;0.57;0.57;;;;;;;1.26;70.91;95663.50;29373;336;63004;-56
2023/03/07 01:09:16;;;;;;;0.60;0.60;;;;;;;1.26;71.34;95663.50;29373;197;63008;-69
2023/03/07 01:09:51;;;;;;;0.52;0.52;;;;;;;1.27;71.13;95665.09;29373;197;63004;-71
2023/03/07 01:10:24;;;;;;;0.60;0.60;;;;;;;1.26;71.07;95665.38;29371;244;64013;-54
2023/03/07 01:11:01;;;;;;;0.60;0.60;;;;;;;1.29;70.77;95665.66;29371;274;64009;-55
2023/03/07 01:11:34;;;;;;;0.60;0.60;;;;;;;1.34;71.13;95664.84;29373;216;63009;-55
2023/03/07 01:12:06;;;;;;;0.60;0.60;;;;;;;1.38;70.56;95654.44;29371;321;64009;-55
2023/03/07 01:12:37;;;;;;;0.60;0.60;;;;;;;1.37;70.65;95663.53;29373;198;63009;-70
2023/03/07 01:13:10;;;;;;;0.80;0.80;;;;;;;1.38;70.49;95660.59;29373;302;63005;-56
2023/03/07 01:13:41;;;;;;;0.70;0.70;;;;;;;1.39;70.64;95656.03;29373;235;63009;-55
2023/03/07 01:14:13;;;;;;;0.60;0.60;;;;;;;1.38;70.40;95655.25;29373;295;63000;-55
2023/03/07 01:14:48;;;;;;;0.60;0.60;;;;;;;1.38;70.57;95655.25;29373;327;63009;-68
2023/03/07 01:15:22;;;;;;;0.60;0.60;;;;;;;1.36;70.53;95656.56;29373;218;63004;-54
2023/03/07 01:16:18;;;;;;;0.60;0.60;;;;;;;1.30;70.65;95659.22;29371;256;64013;-54
2023/03/07 01:16:50;;;;;;;0.98;0.98;;;;;;;1.25;71.19;95656.53;29373;321;63004;-55
2023/03/07 01:17:21;;;;;;;0.60;0.60;;;;;;;1.21;71.13;95660.81;29373;215;63009;-68
2023/03/07 01:17:53;;;;;;;0.60;0.60;;;;;;;1.24;71.38;95649.59;29371;263;64009;-56
2023/03/07 01:18:24;;;;;;;0.60;0.60;;;;;;;1.33;70.80;95657.91;29373;202;63009;-54
2023/03/07 01:19:04;;;;;;;0.60;0.60;;;;;;;1.38;70.32;95654.44;29373;349;63008;-54
2023/03/07 01:19:38;;;;;;;0.60;0.60;;;;;;;1.41;70.18;95653.88;29371;214;64013;-54
2023/03/07 01:20:12;;;;;;;0.60;0.60;;;;;;;1.40;70.04;95652.28;29373;234;63005;-55
2023/03/07 01:20:44;;;;;;;0.60;0.60;;;;;;;1.39;70.18;95654.16;29373;299;63009;-54
2023/03/07 01:21:21;;;;;;;0.60;0.60;;;;;;;1.36;69.96;95653.91;29373;314;63005;-55
2023/03/07 01:21:53;;;;;;;0.60;0.60;;;;;;;1.32;70.32;95656.28;29373;265;63009;-54
2023/03/07 01:22:24;;;;;;;0.60;0.60;;;;;;;1.29;70.13;95652.28;29373;221;63016;-55
2023/03/07 01:22:56;;;;;;;0.60;0.60;;;;;;;1.28;70.46;95656.03;29373;291;63009;-56
2023/03/07 01:23:27;;;;;;;0.60;0.60;;;;;;;1.26;70.61;95655.47;29373;263;63004;-55
2023/03/07 01:23:59;;;;;;;0.60;0.60;;;;;;;1.25;70.93;95656.53;29373;334;63008;-56
2023/03/07 01:24:30;;;;;;;0.60;0.60;;;;;;;1.26;71.11;95660.81;29371;314;64008;-70
2023/03/07 01:25:01;;;;;;;0.60;0.60;;;;;;;1.24;71.19;95662.94;29373;316;63009;-69
2023/03/07 01:25:39;;;;;;;0.60;0.60;;;;;;;1.21;71.03;95660.81;29371;239;64009;-54
2023/03/07 01:26:21;;;;;;;0.60;0.60;;;;;;;1.26;70.69;95662.69;29373;348;63009;-55
2023/03/07 01:26:53;;;;;;;0.60;0.60;;;;;;;1.30;70.43;95658.44;29373;315;63005;-55
2023/03/07 01:27:24;;;;;;;0.60;0.60;;;;;;;1.38;70.49;95660.59;29373;321;63009;-56
2023/03/07 01:27:55;;;;;;;0.60;0.60;;;;;;;1.42;70.29;95650.16;29373;202;63000;-55
2023/03/07 01:28:28;;;;;;;0.60;0.60;;;;;;;1.45;69.41;95650.41;29371;342;64013;-69
2023/03/07 01:29:02;;;;;;;0.60;0.60;;;;;;;1.45;69.71;95649.63;29373;222;63004;-55
2023/03/07 01:29:33;;;;;;;0.60;0.60;;;;;;;1.43;69.64;95657.09;29373;244;63009;-55
2023/03/07 01:30:06;;;;;;;0.60;0.60;;;;;;;1.40;69.77;95652.28;29373;221;63004;-55
2023/03/07 01:30:39;;;;;;;0.60;0.60;;;;;;;1.38;70.30;95649.09;29373;268;63009;-55
2023/03/07 01:31:11;;;;;;;0.60;0.60;;;;;;;1.37;70.12;95652.84;29373;277;63004;-69
2023/03/07 01:31:42;;;;;;;0.60;0.60;;;;;;;1.33;70.02;95647.22;29371;316;64013;-69
2023/03/07 01:32:14;;;;;;;0.60;0.60;;;;;;;1.33;69.99;95657.91;29373;205;63004;-65
2023/03/07 01:32:47;;;;;;;0.60;0.60;;;;;;;1.34;70.15;95649.63;29373;287;63009;-55
2023/03/07 01:33:18;;;;;;;0.60;0.60;;;;;;;1.33;69.66;95653.38;29373;214;63005;-54
2023/03/07 01:33:52;;;;;;;0.60;0.60;;;;;;;1.31;69.83;95654.69;29371;318;64014;-55
2023/03/07 01:34:23;;;;;;;0.60;0.60;;;;;;;1.28;70.19;95652.53;29373;212;63005;-70
2023/03/07 01:34:57;;;;;;;0.60;0.60;;;;;;;1.24;69.99;95657.59;29373;252;63009;-55
2023/03/07 01:35:28;;;;;;;0.60;0.60;;;;;;;1.23;70.46;95652.53;29373;202;63005;-68
2023/03/07 01:36:00;;;;;;;0.60;0.60;;;;;;;1.21;70.65;95655.47;29373;199;63009;-70
2023/03/07 01:36:33;;;;;;;0.60;0.60;;;;;;;1.20;70.52;95653.06;29373;202;63008;-68
2023/03/07 01:37:05;;;;;;;0.60;0.60;;;;;;;1.19;70.74;95656.78;29373;240;63009;-69
2023/03/07 01:37:36;;;;;;;0.60;0.60;;;;;;;1.18;70.67;95649.84;29372;197;63004;-69
2023/03/07 01:38:09;;;;;;;0.60;0.60;;;;;;;1.26;70.71;95647.47;29373;197;63009;-69
2023/03/07 01:38:40;;;;;;;0.70;0.70;;;;;;;1.31;69.92;95650.16;29371;354;64009;-69
2023/03/07 01:39:14;;;;;;;0.60;0.60;;;;;;;1.34;70.16;95649.63;29373;201;63008;-68
2023/03/07 01:39:45;;;;;;;0.60;0.60;;;;;;;1.33;69.83;95652.56;29373;301;63004;-55
2023/03/07 01:40:19;;;;;;;0.60;0.60;;;;;;;1.30;70.14;95651.22;29371;321;64014;-54
2023/03/07 01:40:50;;;;;;;0.60;0.60;;;;;;;1.27;70.32;95651.75;29373;302;63005;-55
2023/03/07 01:41:23;;;;;;;0.60;0.60;;;;;;;1.26;70.08;95652.81;29373;280;63009;-69
2023/03/07 01:41:54;;;;;;;0.95;0.95;;;;;;;1.25;70.31;95645.84;29373;224;63005;-55
2023/03/07 01:42:30;;;;;;;0.60;0.60;;;;;;;1.25;70.49;95648.53;29373;334;63009;-55
2023/03/07 01:43:24;;;;;;;0.60;0.60;;;;;;;1.21;70.56;95644.78;29373;199;63005;-68
2023/03/07 01:43:55;;;;;;;0.60;0.60;;;;;;;1.19;70.23;95643.44;29371;277;64009;-55
2023/03/07 01:44:26;;;;;;;0.60;0.60;;;;;;;1.16;70.16;95647.44;29373;373;63009;-54
2023/03/07 01:45:52;;;;;;;0.60;0.60;;;;;;;1.21;70.28;95642.09;29371;202;64009;-67
2023/03/07 01:46:48;;;;;;;0.60;0.60;;;;;;;1.37;69.04;95642.16;29373;365;63009;-68
2023/03/07 01:47:19;;;;;;;0.60;0.60;;;;;;;1.41;69.06;95632.50;29373;224;63004;-55
2023/03/07 01:47:50;;;;;;;0.60;0.60;;;;;;;1.43;68.83;95635.72;29373;276;63009;-55
2023/03/07 01:48:21;;;;;;;0.60;0.60;;;;;;;1.44;69.13;95642.66;29373;202;63012;-56
2023/03/07 01:49:04;;;;;;;0.85;0.85;;;;;;;1.49;68.31;95630.12;29373;199;63009;-67
2023/03/07 01:49:40;;;;;;;0.60;0.60;;;;;;;1.52;68.43;95628.78;29373;228;63005;-58
2023/03/07 01:50:15;;;;;;;0.60;0.60;;;;;;;1.54;68.13;95632.78;29371;328;64013;-56
2023/03/07 01:50:48;;;;;;;0.60;0.60;;;;;;;1.54;68.03;95630.12;29373;243;63005;-56
2023/03/07 01:51:20;;;;;;;1.25;1.25;;;;;;;1.53;68.16;95630.38;29373;316;63009;-67
2023/03/07 01:52:05;;;;;;;0.60;0.60;;;;;;;1.56;68.18;95633.34;29373;228;63004;-54
2023/03/07 01:52:51;;;;;;;0.60;0.60;;;;;;;1.59;67.95;95618.63;29371;279;64013;-69
2023/03/07 01:53:22;;;;;;;0.60;0.60;;;;;;;1.54;68.21;95630.12;29373;206;63004;-71
2023/03/07 01:53:56;;;;;;;0.60;0.60;;;;;;;1.47;68.12;95626.91;29373;330;63008;-54
2023/03/07 01:54:30;;;;;;;0.60;0.60;;;;;;;1.44;68.41;95629.31;29373;223;63004;-57
2023/03/07 01:55:15;;;;;;;0.60;0.60;;;;;;;1.45;68.06;95623.69;29373;209;63009;-54
2023/03/07 01:55:47;;;;;;;0.60;0.60;;;;;;;1.51;67.69;95621.81;29371;209;64009;-56
2023/03/07 01:56:21;;;;;;;0.60;0.60;;;;;;;1.58;67.89;95619.69;29371;199;64013;-69
2023/03/07 01:56:53;;;;;;;0.85;0.85;;;;;;;1.60;67.71;95620.25;29373;218;63005;-69
2023/03/07 01:57:33;;;;;;;0.60;0.60;;;;;;;1.57;67.44;95621.56;29373;215;63009;-70
2023/03/07 01:58:12;;;;;;;0.60;0.60;;;;;;;1.51;67.46;95627.19;29393;212;64009;-55
2023/03/07 01:58:45;;;;;;;0.60;0.60;;;;;;;1.55;67.34;95623.72;29395;210;63009;-55
2023/03/07 01:59:27;;;;;;;0.60;0.60;;;;;;;1.53;67.69;95617.81;29373;235;63004;-55
2023/03/07 02:00:04;;;;;;;0.60;0.60;;;;;;;1.52;67.55;95626.09;29371;240;64013;-56
2023/03/07 02:00:37;;;;;;;0.60;0.60;;;;;;;1.52;67.79;95618.87;29373;246;63004;-68
2023/03/07 02:01:12;;;;;;;0.60;0.60;;;;;;;1.49;67.75;95613.28;29373;211;63008;-54
2023/03/07 02:01:43;;;;;;;0.60;0.60;;;;;;;1.44;67.63;95622.09;29373;231;63005;-69
2023/03/07 02:02:18;;;;;;;0.60;0.60;;;;;;;1.40;67.82;95630.91;29373;198;63009;-55
2023/03/07 02:03:01;;;;;;;0.82;0.82;;;;;;;1.37;68.27;95623.44;29371;270;64009;-55
2023/03/07 02:03:42;;;;;;;0.60;0.60;;;;;;;1.32;68.40;95634.91;29373;331;63026;-55
2023/03/07 02:04:25;;;;;;;0.60;0.60;;;;;;;1.43;68.42;95617.00;29395;234;63005;-65
2023/03/07 02:05:06;;;;;;;0.60;0.60;;;;;;;1.50;67.90;95620.22;29395;272;63005;-55
2023/03/07 02:05:51;;;;;;;0.60;0.60;;;;;;;1.50;68.13;95626.37;29394;204;63000;-68
2023/03/07 02:06:26;;;;;;;0.60;0.60;;;;;;;1.48;67.87;95622.34;29395;222;63004;-70
2023/03/07 02:07:00;;;;;;;0.60;0.60;;;;;;;1.43;68.19;95617.00;29373;257;63000;-55
2023/03/07 02:07:38;;;;;;;0.60;0.60;;;;;;;1.39;68.25;95614.06;29373;252;63004;-68
2023/03/07 02:08:12;;;;;;;0.60;0.60;;;;;;;1.37;68.29;95610.06;29371;216;64009;-55
2023/03/07 02:08:49;;;;;;;2.50;1.02;;;;;;;1.42;68.06;95616.19;29373;214;63008;-55
2023/03/07 02:09:23;;;;;;;0.60;0.60;;;;;;;1.44;68.12;95621.28;29373;325;63009;-55
2023/03/07 02:09:56;;;;;;;0.60;0.60;;;;;;;1.42;68.04;95618.06;29373;204;63009;-55
2023/03/07 02:10:29;;;;;;;0.60;0.60;;;;;;;1.41;67.87;95608.44;29371;300;64009;-72
2023/03/07 02:11:02;;;;;;;0.60;0.60;;;;;;;1.40;67.73;95612.19;29373;234;63009;-70
2023/03/07 02:11:33;;;;;;;0.60;0.60;;;;;;;1.39;68.06;95613.28;29373;319;63010;-55
2023/03/07 02:12:06;;;;;;;0.60;0.60;;;;;;;1.42;68.14;95623.41;29373;242;63009;-55
2023/03/07 02:12:40;;;;;;;0.60;0.60;;;;;;;1.42;68.30;95612.72;29373;212;63005;-56
2023/03/07 02:13:11;;;;;;;0.60;0.60;;;;;;;1.41;68.07;95611.91;29371;221;64013;-55
2023/03/07 02:13:44;;;;;;;0.60;0.60;;;;;;;1.41;68.22;95619.94;29373;205;63000;-55
2023/03/07 02:14:15;;;;;;;0.60;0.60;;;;;;;1.38;68.26;95617.03;29373;323;63009;-54
2023/03/07 02:14:48;;;;;;;0.60;0.60;;;;;;;1.34;68.75;95625.56;29373;220;63004;-56
2023/03/07 02:15:20;;;;;;;0.60;0.60;;;;;;;1.33;68.96;95620.50;29373;212;63009;-54
2023/03/07 02:15:51;;;;;;;0.60;0.60;;;;;;;1.31;68.72;95617.28;29373;333;63010;-64
2023/03/07 02:16:23;;;;;;;0.60;0.60;;;;;;;1.44;68.28;95619.41;29373;213;63008;-54
2023/03/07 02:16:55;;;;;;;0.88;0.88;;;;;;;1.53;67.52;95614.34;29373;211;63005;-55
2023/03/07 02:17:27;;;;;;;0.60;0.60;;;;;;;1.56;67.58;95619.16;29373;220;63009;-55
2023/03/07 02:18:03;;;;;;;0.90;0.90;;;;;;;1.66;67.15;95613.81;29371;203;64009;-57
2023/03/07 02:18:41;;;;;;;0.60;0.60;;;;;;;1.70;66.79;95606.06;29373;217;63027;-72
2023/03/07 02:19:29;;;;;;;0.60;0.60;;;;;;;1.62;67.25;95618.09;29373;225;63005;-56
2023/03/07 02:20:29;;;;;;;0.60;0.60;;;;;;;1.50;67.36;95610.34;29373;224;63009;-54
2023/03/07 02:21:23;;;;;;;0.60;0.60;;;;;;;1.49;67.88;95613.28;29373;239;63004;-55
2023/03/07 02:22:17;;;;;;;0.52;0.52;;;;;;;1.43;68.20;95608.97;29371;251;64004;-68
2023/03/07 02:22:50;;;;;;;0.60;0.60;;;;;;;1.38;68.29;95620.50;29373;203;63004;-55
2023/03/07 02:24:06;;;;;;;0.60;0.60;;;;;;;1.37;68.39;95620.75;29373;219;63009;-55
2023/03/07 02:24:53;;;;;;;0.60;0.60;;;;;;;1.38;68.30;95614.34;29371;231;64009;-67
2023/03/07 02:25:58;;;;;;;0.60;0.60;;;;;;;1.35;68.37;95629.03;29373;257;63009;-56
2023/03/07 02:26:52;;;;;;;0.60;0.60;;;;;;;1.44;68.20;95613.25;29373;258;63005;-57
2023/03/07 02:27:29;;;;;;;1.12;1.12;;;;;;;1.46;67.97;95613.81;29373;222;63009;-56
2023/03/07 02:28:03;;;;;;;0.60;0.60;;;;;;;1.43;67.67;95608.97;29371;254;64009;-55
2023/03/07 02:28:35;;;;;;;0.60;0.60;;;;;;;1.38;67.85;95617.81;29373;256;63009;-55
2023/03/07 02:29:07;;;;;;;0.60;0.60;;;;;;;1.42;68.32;95612.72;29373;218;63004;-56
2023/03/07 02:29:39;;;;;;;0.60;0.60;;;;;;;1.50;67.74;95614.88;29373;268;63009;-55
2023/03/07 02:30:12;;;;;;;0.60;0.60;;;;;;;1.48;68.21;95606.31;29371;207;64009;-68
2023/03/07 02:31:01;;;;;;;0.60;0.60;;;;;;;1.43;68.08;95619.69;29373;196;63009;-69
2023/03/07 02:31:33;;;;;;;0.60;0.60;;;;;;;1.45;68.22;95612.19;29373;208;63015;-68
2023/03/07 02:33:12;;;;;;;0.66;0.66;;;;;;;1.49;67.79;95607.94;88178;218;64005;-55
2023/03/07 02:33:43;;;;;;;0.60;0.60;;;;;;;1.44;68.10;95606.03;29394;293;64009;-55
2023/03/07 02:34:26;;;;;;;0.60;0.60;;;;;;;1.38;68.14;95617.03;29373;203;63005;-55
2023/03/07 02:34:59;;;;;;;0.60;0.60;;;;;;;1.37;68.58;95612.75;29371;224;64014;-56
2023/03/07 02:35:33;;;;;;;0.60;0.60;;;;;;;1.34;68.32;95612.22;29373;222;63005;-56
2023/03/07 02:36:10;;;;;;;0.60;0.60;;;;;;;1.31;68.71;95604.72;29371;220;64013;-54
2023/03/07 02:36:42;;;;;;;0.60;0.60;;;;;;;1.29;68.88;95606.84;29373;215;63005;-55
2023/03/07 02:37:21;;;;;;;0.68;0.68;;;;;;;1.28;69.05;95607.91;29373;198;63021;-69
2023/03/07 02:38:00;;;;;;;0.62;0.62;;;;;;;1.39;68.27;95613.28;29373;207;63004;-69
2023/03/07 02:38:36;;;;;;;0.60;0.60;;;;;;;1.37;68.47;95604.72;29373;287;63009;-72
2023/03/07 02:39:09;;;;;;;1.60;1.50;;;;;;;1.35;68.37;95607.66;29371;239;64009;-55
2023/03/07 02:39:45;;;;;;;0.60;0.60;;;;;;;1.33;68.65;95604.44;29373;214;63009;-54
2023/03/07 02:40:22;;;;;;;0.60;0.60;;;;;;;1.30;68.59;95611.13;29371;221;64008;-55
2023/03/07 02:40:55;;;;;;;0.60;0.60;;;;;;;1.26;69.05;95599.38;29373;221;63008;-54
2023/03/07 02:41:31;;;;;;;0.60;0.60;;;;;;;1.22;69.26;95610.84;29373;260;63005;-55
2023/03/07 02:42:08;;;;;;;0.60;0.60;;;;;;;1.20;69.38;95605.75;29371;208;64014;-55
2023/03/07 02:42:43;;;;;;;0.60;0.60;;;;;;;1.19;69.66;95598.81;29373;220;63005;-55
2023/03/07 02:43:15;;;;;;;0.60;0.60;;;;;;;1.19;69.59;95603.34;29373;259;63015;-54
2023/03/07 02:43:46;;;;;;;0.60;0.60;;;;;;;1.18;69.75;95599.88;29373;221;63005;-54
2023/03/07 02:44:19;;;;;;;0.60;0.60;;;;;;;1.17;69.37;95603.63;29371;263;64013;-55
2023/03/07 02:44:59;;;;;;;0.60;0.60;;;;;;;1.20;69.55;95597.75;29373;220;63005;-55
2023/03/07 02:45:31;;;;;;;;;;;;;;;1.23;69.05;95594.53;29973;983;29004;-53
2023/03/07 02:46:03;;;;;;;0.60;0.60;;;;;;;1.24;69.23;95590.00;29422;323;63004;-55
2023/03/07 02:46:34;;;;;;;0.60;0.60;;;;;;;1.23;69.01;95599.88;29395;206;63000;-54
2023/03/07 02:47:08;;;;;;;0.60;0.60;;;;;;;1.22;69.34;95595.63;29373;287;63004;-68